createdAt,value
2018-07-25T00:01:38.647Z,9.68
2018-07-25T00:04:07.938Z,7.75
2018-07-25T00:06:37.158Z,8.65
2018-07-25T00:09:08.639Z,7.40
2018-07-25T00:11:37.894Z,9.13
2018-07-25T00:14:07.310Z,7.87
2018-07-25T00:16:36.680Z,8.63
2018-07-25T00:19:05.985Z,7.35
2018-07-25T00:21:35.429Z,7.37
2018-07-25T00:24:04.825Z,8.00
2018-07-25T00:26:34.061Z,7.37
2018-07-25T00:29:03.538Z,7.30
2018-07-25T00:31:33.337Z,8.03
2018-07-25T00:34:02.475Z,9.48
2018-07-25T00:36:31.749Z,9.28
2018-07-25T00:39:01.138Z,9.25
2018-07-25T00:41:30.446Z,11.78
2018-07-25T00:43:59.750Z,7.83
2018-07-25T00:46:29.007Z,7.87
2018-07-25T00:48:58.109Z,7.85
2018-07-25T00:51:27.378Z,8.85
2018-07-25T00:53:56.779Z,10.75
2018-07-25T00:56:25.958Z,8.23
2018-07-25T00:58:55.108Z,8.45
2018-07-25T01:01:25.571Z,9.60
2018-07-25T01:03:54.802Z,7.70
2018-07-25T01:06:24.128Z,6.20
2018-07-25T01:08:53.423Z,6.67
2018-07-25T01:11:22.723Z,8.30
2018-07-25T01:13:51.882Z,7.65
2018-07-25T01:16:21.142Z,9.15
2018-07-25T01:18:50.434Z,7.87
2018-07-25T01:21:19.808Z,7.80
2018-07-25T01:23:49.012Z,7.65
2018-07-25T01:26:18.217Z,7.80
2018-07-25T01:28:47.583Z,9.65
2018-07-25T01:31:16.894Z,10.70
2018-07-25T01:33:46.216Z,7.92
2018-07-25T01:36:15.445Z,9.93
2018-07-25T01:38:44.749Z,8.88
2018-07-25T01:41:14.149Z,9.18
2018-07-25T01:43:43.440Z,8.98
2018-07-25T01:46:12.657Z,11.75
2018-07-25T01:48:42.028Z,8.93
2018-07-25T01:51:11.504Z,10.85
2018-07-25T01:53:40.673Z,9.25
2018-07-25T01:56:09.957Z,10.80
2018-07-25T01:58:39.275Z,10.50
2018-07-25T02:01:08.585Z,8.88
2018-07-25T02:03:38.042Z,7.87
2018-07-25T02:06:07.271Z,7.53
2018-07-25T02:08:36.558Z,9.05
2018-07-25T02:11:05.918Z,12.05
2018-07-25T02:13:35.777Z,8.38
2018-07-25T02:16:05.061Z,9.45
2018-07-25T02:18:34.523Z,8.95
2018-07-25T02:21:03.862Z,8.65
2018-07-25T02:23:33.192Z,8.73
2018-07-25T02:26:02.390Z,10.80
2018-07-25T02:28:31.761Z,8.63
2018-07-25T02:31:01.110Z,9.48
2018-07-25T02:33:35.394Z,8.58
2018-07-25T02:36:04.802Z,9.93
2018-07-25T02:38:34.131Z,9.38
2018-07-25T02:41:03.325Z,12.33
2018-07-25T02:43:32.546Z,8.35
2018-07-25T02:46:01.802Z,9.08
2018-07-25T02:48:31.166Z,8.98
2018-07-25T02:51:00.476Z,9.65
2018-07-25T02:53:29.782Z,8.83
2018-07-25T02:55:59.194Z,10.38
2018-07-25T02:58:28.573Z,12.47
2018-07-25T03:00:57.923Z,10.15
2018-07-25T03:03:27.161Z,13.55
2018-07-25T03:05:56.464Z,9.85
2018-07-25T03:08:25.695Z,9.65
2018-07-25T03:10:55.722Z,9.70
2018-07-25T03:13:25.604Z,17.42
2018-07-25T03:16:05.299Z,13.18
2018-07-25T03:18:34.597Z,10.08
2018-07-25T03:21:03.989Z,12.28
2018-07-25T03:23:34.234Z,12.03
2018-07-25T03:26:03.625Z,10.20
2018-07-25T03:28:33.134Z,15.90
2018-07-25T03:31:02.358Z,12.00
2018-07-25T03:33:31.730Z,11.03
2018-07-25T03:36:01.206Z,11.38
2018-07-25T03:38:30.443Z,9.68
2018-07-25T03:40:59.751Z,10.35
2018-07-25T03:43:29.054Z,9.15
2018-07-25T03:45:58.322Z,9.35
2018-07-25T03:48:27.612Z,9.85
2018-07-25T03:50:57.002Z,11.22
2018-07-25T03:53:26.914Z,8.85
2018-07-25T03:55:56.124Z,8.60
2018-07-25T03:58:25.454Z,8.98
2018-07-25T04:00:54.858Z,14.30
2018-07-25T04:03:24.094Z,9.08
2018-07-25T04:05:53.343Z,7.50
2018-07-25T04:08:22.637Z,9.25
2018-07-25T04:10:53.113Z,11.15
2018-07-25T04:13:22.404Z,9.20
2018-07-25T04:15:51.757Z,8.83
2018-07-25T04:18:20.958Z,8.48
2018-07-25T04:20:50.243Z,8.88
2018-07-25T04:23:19.419Z,10.30
2018-07-25T04:25:48.388Z,8.53
2018-07-25T04:28:17.543Z,9.38
2018-07-25T04:30:46.718Z,9.93
2018-07-25T04:33:16.070Z,9.68
2018-07-25T04:35:45.497Z,9.08
2018-07-25T04:38:14.708Z,9.48
2018-07-25T04:40:43.903Z,9.90
2018-07-25T04:43:13.310Z,10.78
2018-07-25T04:45:42.521Z,9.75
2018-07-25T04:48:11.725Z,9.75
2018-07-25T04:50:40.988Z,9.18
2018-07-25T04:53:10.204Z,10.25
2018-07-25T04:55:39.464Z,8.75
2018-07-25T04:58:08.867Z,7.62
2018-07-25T05:00:38.393Z,9.45
2018-07-25T05:03:09.205Z,6.72
2018-07-25T05:05:38.609Z,10.75
2018-07-25T05:08:08.107Z,8.15
2018-07-25T05:10:37.440Z,6.12
2018-07-25T05:13:07.074Z,11.93
2018-07-25T05:15:36.418Z,10.43
2018-07-25T05:18:05.956Z,8.28
2018-07-25T05:20:35.449Z,8.20
2018-07-25T05:23:05.868Z,6.50
2018-07-25T05:25:35.671Z,8.50
2018-07-25T05:28:05.029Z,6.62
2018-07-25T05:30:35.510Z,13.78
2018-07-25T05:33:05.216Z,10.85
2018-07-25T05:35:34.755Z,8.35
2018-07-25T05:38:05.138Z,6.70
2018-07-25T05:40:34.606Z,6.62
2018-07-25T05:43:04.244Z,11.35
2018-07-25T05:45:33.695Z,8.43
2018-07-25T05:48:03.067Z,9.98
2018-07-25T05:50:33.387Z,6.53
2018-07-25T05:53:02.591Z,7.15
2018-07-25T05:55:31.993Z,12.35
2018-07-25T05:58:01.382Z,6.17
2018-07-25T06:00:30.679Z,9.93
2018-07-25T06:03:00.194Z,11.85
2018-07-25T06:05:29.401Z,6.50
2018-07-25T06:07:58.529Z,10.50
2018-07-25T06:10:27.774Z,6.87
2018-07-25T06:12:57.497Z,7.45
2018-07-25T06:15:27.703Z,8.78
2018-07-25T06:17:56.961Z,10.15
2018-07-25T06:20:26.397Z,10.13
2018-07-25T06:22:55.985Z,9.15
2018-07-25T06:25:25.352Z,9.13
2018-07-25T06:27:54.584Z,8.35
2018-07-25T06:30:24.163Z,9.40
2018-07-25T06:32:53.536Z,7.92
2018-07-25T06:35:23.015Z,13.72
2018-07-25T06:37:52.358Z,5.60
2018-07-25T06:40:21.659Z,6.65
2018-07-25T06:42:51.037Z,9.00
2018-07-25T06:45:20.409Z,6.25
2018-07-25T06:47:49.750Z,8.63
2018-07-25T06:50:19.062Z,5.65
2018-07-25T06:52:48.455Z,7.03
2018-07-25T06:55:17.737Z,7.22
2018-07-25T06:57:47.148Z,5.35
2018-07-25T07:00:16.614Z,5.92
2018-07-25T07:02:46.018Z,10.18
2018-07-25T07:05:16.048Z,6.17
2018-07-25T07:07:45.501Z,4.90
2018-07-25T07:10:14.771Z,5.25
2018-07-25T07:12:44.218Z,6.95
2018-07-25T07:15:13.553Z,6.47
2018-07-25T07:17:43.238Z,5.35
2018-07-25T07:20:12.762Z,5.10
2018-07-25T07:22:42.142Z,5.25
2018-07-25T07:25:11.721Z,6.90
2018-07-25T07:27:41.166Z,6.40
2018-07-25T07:30:10.522Z,7.72
2018-07-25T07:32:39.845Z,4.25
2018-07-25T07:35:09.119Z,5.45
2018-07-25T07:37:38.651Z,7.35
2018-07-25T07:40:08.133Z,4.37
2018-07-25T07:42:37.442Z,6.33
2018-07-25T07:45:08.223Z,3.70
2018-07-25T07:47:37.618Z,4.55
2018-07-25T07:50:07.052Z,6.12
2018-07-25T07:52:36.379Z,3.90
2018-07-25T07:55:05.935Z,4.60
2018-07-25T07:57:35.295Z,4.42
2018-07-25T08:00:05.541Z,6.55
2018-07-25T08:02:34.922Z,6.83
2018-07-25T08:05:04.402Z,6.50
2018-07-25T08:07:33.856Z,3.98
2018-07-25T08:10:03.253Z,6.60
2018-07-25T08:12:32.669Z,4.58
2018-07-25T08:15:02.078Z,4.58
2018-07-25T08:17:31.610Z,4.72
2018-07-25T08:20:01.010Z,7.30
2018-07-25T08:22:30.390Z,5.58
2018-07-25T08:24:59.790Z,4.83
2018-07-25T08:27:29.031Z,3.42
2018-07-25T08:29:58.598Z,4.42
2018-07-25T08:32:27.936Z,4.87
2018-07-25T08:34:57.350Z,3.85
2018-07-25T08:37:26.699Z,6.15
2018-07-25T08:39:56.357Z,5.33
2018-07-25T08:42:25.602Z,6.47
2018-07-25T08:44:54.938Z,7.28
2018-07-25T08:47:24.282Z,6.22
2018-07-25T08:49:53.766Z,12.50
2018-07-25T08:52:23.199Z,4.80
2018-07-25T08:54:52.618Z,3.45
2018-07-25T08:57:21.980Z,3.58
2018-07-25T08:59:51.403Z,8.88
2018-07-25T09:02:20.903Z,3.47
2018-07-25T09:04:50.300Z,8.00
2018-07-25T09:07:19.776Z,3.37
2018-07-25T09:09:49.136Z,9.63
2018-07-25T09:12:18.506Z,8.23
2018-07-25T09:14:47.899Z,4.85
2018-07-25T09:17:17.213Z,6.35
2018-07-25T09:19:46.719Z,6.87
2018-07-25T09:22:16.235Z,7.47
2018-07-25T09:24:45.519Z,5.67
2018-07-25T09:27:14.975Z,3.62
2018-07-25T09:29:44.271Z,4.25
2018-07-25T09:32:13.746Z,5.17
2018-07-25T09:34:43.101Z,8.13
2018-07-25T09:37:12.390Z,5.00
2018-07-25T09:39:41.755Z,4.17
2018-07-25T09:42:11.073Z,6.30
2018-07-25T09:44:40.593Z,7.10
2018-07-25T09:47:10.415Z,5.62
2018-07-25T09:49:39.754Z,4.05
2018-07-25T09:52:09.192Z,4.87
2018-07-25T09:54:38.586Z,6.08
2018-07-25T09:57:07.975Z,3.70
2018-07-25T09:59:37.311Z,3.80
2018-07-25T10:02:06.701Z,3.83
2018-07-25T10:04:36.187Z,5.33
2018-07-25T10:07:06.202Z,3.60
2018-07-25T10:09:35.644Z,6.35
2018-07-25T10:12:04.990Z,10.43
2018-07-25T10:14:34.724Z,4.45
2018-07-25T10:17:04.243Z,8.05
2018-07-25T10:19:33.679Z,5.80
2018-07-25T10:22:03.069Z,6.80
2018-07-25T10:24:32.598Z,6.75
2018-07-25T10:27:01.971Z,4.45
2018-07-25T10:29:31.371Z,6.08
2018-07-25T10:32:00.848Z,3.87
2018-07-25T10:34:30.222Z,9.13
2018-07-25T10:36:59.629Z,4.42
2018-07-25T10:39:29.076Z,7.55
2018-07-25T10:41:58.409Z,5.58
2018-07-25T10:44:27.875Z,3.90
2018-07-25T10:46:57.188Z,4.50
2018-07-25T10:49:26.668Z,6.22
2018-07-25T10:51:56.097Z,4.30
2018-07-25T10:54:25.556Z,5.62
2018-07-25T10:56:55.993Z,3.92
2018-07-25T10:59:25.240Z,7.17
2018-07-25T11:01:55.276Z,7.72
2018-07-25T11:04:24.649Z,3.80
2018-07-25T11:06:53.988Z,3.58
2018-07-25T11:09:23.514Z,4.95
2018-07-25T11:11:52.914Z,4.08
2018-07-25T11:14:22.288Z,4.75
2018-07-25T11:16:51.665Z,4.33
2018-07-25T11:19:21.039Z,3.77
2018-07-25T11:21:50.466Z,3.22
2018-07-25T11:24:19.880Z,6.47
2018-07-25T11:26:49.455Z,4.00
2018-07-25T11:29:18.840Z,6.90
2018-07-25T11:31:48.138Z,3.40
2018-07-25T11:34:17.555Z,5.05
2018-07-25T11:36:46.852Z,5.05
2018-07-25T11:39:16.265Z,4.62
2018-07-25T11:41:45.827Z,4.30
2018-07-25T11:44:15.007Z,3.72
2018-07-25T11:46:44.452Z,3.25
2018-07-25T11:49:13.858Z,7.42
2018-07-25T11:51:43.234Z,9.93
2018-07-25T11:54:12.609Z,3.42
2018-07-25T11:56:41.993Z,3.80
2018-07-25T11:59:11.269Z,3.62
2018-07-25T12:01:40.701Z,4.78
2018-07-25T12:04:10.118Z,4.70
2018-07-25T12:06:39.589Z,7.78
2018-07-25T12:09:10.772Z,5.05
2018-07-25T12:11:45.233Z,4.42
2018-07-25T12:14:17.200Z,5.85
2018-07-25T12:16:46.634Z,5.10
2018-07-25T12:19:16.048Z,8.05
2018-07-25T12:21:45.442Z,7.08
2018-07-25T12:24:14.910Z,4.05
2018-07-25T12:26:44.270Z,5.22
2018-07-25T12:29:13.645Z,5.42
2018-07-25T12:31:43.065Z,5.70
2018-07-25T12:34:12.442Z,4.00
2018-07-25T12:36:41.936Z,3.37
2018-07-25T12:39:11.442Z,3.67
2018-07-25T12:41:40.926Z,4.95
2018-07-25T12:44:10.238Z,5.22
2018-07-25T12:46:39.486Z,4.58
2018-07-25T12:49:09.070Z,4.87
2018-07-25T12:51:38.466Z,6.58
2018-07-25T12:54:07.971Z,2.85
2018-07-25T12:56:37.557Z,6.65
2018-07-25T12:59:07.016Z,4.67
2018-07-25T13:01:36.399Z,3.60
2018-07-25T13:04:05.988Z,3.52
2018-07-25T13:06:35.400Z,5.03
2018-07-25T13:09:07.632Z,5.30
2018-07-25T13:11:37.459Z,4.40
2018-07-25T13:14:06.926Z,3.55
2018-07-25T13:16:36.487Z,5.33
2018-07-25T13:19:06.005Z,4.45
2018-07-25T13:21:35.563Z,2.80
2018-07-25T13:24:04.980Z,3.20
2018-07-25T13:26:34.241Z,5.60
2018-07-25T13:29:03.591Z,4.92
2018-07-25T13:31:33.127Z,3.75
2018-07-25T13:34:02.484Z,5.87
2018-07-25T13:36:31.845Z,4.62
2018-07-25T13:39:01.250Z,5.20
2018-07-25T13:41:30.664Z,4.30
2018-07-25T13:44:00.015Z,3.17
2018-07-25T13:46:29.516Z,3.92
2018-07-25T13:48:58.898Z,4.12
2018-07-25T13:51:28.323Z,5.15
2018-07-25T13:53:57.751Z,4.03
2018-07-25T13:56:27.161Z,3.55
2018-07-25T13:58:56.588Z,5.80
2018-07-25T14:01:26.164Z,3.85
2018-07-25T14:03:55.526Z,4.10
2018-07-25T14:06:24.898Z,3.22
2018-07-25T14:08:54.256Z,4.90
2018-07-25T14:11:23.671Z,8.38
2018-07-25T14:13:52.922Z,4.42
2018-07-25T14:16:22.232Z,10.38
2018-07-25T14:18:51.673Z,6.03
2018-07-25T14:21:20.978Z,3.42
2018-07-25T14:23:50.584Z,3.62
2018-07-25T14:26:19.778Z,5.28
2018-07-25T14:28:49.400Z,8.25
2018-07-25T14:31:18.787Z,4.10
2018-07-25T14:33:48.122Z,4.87
2018-07-25T14:36:17.607Z,4.62
2018-07-25T14:38:46.984Z,3.40
2018-07-25T14:41:16.460Z,13.78
2018-07-25T14:43:45.730Z,6.12
2018-07-25T14:46:15.091Z,4.25
2018-07-25T14:48:47.870Z,4.37
2018-07-25T14:51:17.386Z,3.45
2018-07-25T14:53:46.774Z,3.80
2018-07-25T14:56:16.311Z,3.70
2018-07-25T14:58:45.602Z,4.20
2018-07-25T15:01:15.112Z,3.45
2018-07-25T15:03:44.450Z,3.52
2018-07-25T15:06:13.904Z,5.08
2018-07-25T15:08:43.289Z,3.27
2018-07-25T15:11:12.956Z,3.42
2018-07-25T15:13:42.817Z,3.70
2018-07-25T15:16:12.362Z,3.05
2018-07-25T15:18:41.831Z,5.25
2018-07-25T15:21:11.357Z,4.47
2018-07-25T15:23:51.606Z,5.17
2018-07-25T15:26:21.130Z,3.08
2018-07-25T15:28:50.610Z,4.17
2018-07-25T15:31:20.273Z,4.97
2018-07-25T15:33:50.338Z,3.58
2018-07-25T15:36:57.323Z,4.90
2018-07-25T15:39:27.253Z,3.30
2018-07-25T15:41:58.065Z,3.83
2018-07-25T15:44:27.872Z,5.33
2018-07-25T15:46:58.273Z,5.85
2018-07-25T15:49:27.634Z,4.33
2018-07-25T15:51:56.910Z,4.87
2018-07-25T15:54:26.375Z,4.20
2018-07-25T15:56:55.937Z,4.58
2018-07-25T15:59:25.289Z,4.33
2018-07-25T16:01:54.475Z,5.45
2018-07-25T16:04:23.749Z,4.35
2018-07-25T16:06:53.113Z,4.75
2018-07-25T16:09:22.444Z,8.40
2018-07-25T16:11:52.147Z,7.60
2018-07-25T16:14:21.610Z,7.58
2018-07-25T16:16:51.112Z,7.22
2018-07-25T16:19:20.470Z,3.90
2018-07-25T16:21:49.954Z,4.90
2018-07-25T16:24:19.229Z,4.25
2018-07-25T16:26:48.689Z,4.42
2018-07-25T16:29:18.326Z,6.87
2018-07-25T16:31:47.655Z,4.00
2018-07-25T16:34:16.974Z,6.75
2018-07-25T16:36:46.229Z,4.35
2018-07-25T16:39:17.282Z,3.85
2018-07-25T16:41:46.948Z,4.22
2018-07-25T16:44:16.265Z,6.28
2018-07-25T16:46:45.757Z,5.10
2018-07-25T16:49:15.052Z,4.55
2018-07-25T16:51:44.322Z,4.97
2018-07-25T16:54:13.757Z,4.03
2018-07-25T16:56:43.181Z,4.53
2018-07-25T16:59:12.349Z,5.67
2018-07-25T17:01:41.774Z,7.00
2018-07-25T17:04:11.169Z,5.75
2018-07-25T17:06:40.539Z,6.67
2018-07-25T17:09:11.484Z,7.35
2018-07-25T17:11:40.884Z,4.30
2018-07-25T17:14:10.206Z,9.73
2018-07-25T17:16:39.575Z,4.90
2018-07-25T17:19:09.914Z,4.45
2018-07-25T17:21:40.152Z,4.45
2018-07-25T17:24:09.515Z,3.85
2018-07-25T17:26:38.931Z,6.50
2018-07-25T17:29:08.224Z,2.50
2018-07-25T17:31:37.562Z,2.67
2018-07-25T17:34:06.965Z,4.87
2018-07-25T17:36:36.338Z,6.25
2018-07-25T17:39:08.771Z,2.05
2018-07-25T17:41:38.161Z,4.75
2018-07-25T17:44:07.825Z,2.08
2018-07-25T17:46:37.165Z,3.27
2018-07-25T17:49:06.478Z,4.87
2018-07-25T17:51:35.840Z,2.25
2018-07-25T17:54:05.062Z,1.75
2018-07-25T17:56:34.318Z,1.92
2018-07-25T17:59:03.930Z,3.15
2018-07-25T18:01:33.439Z,3.00
2018-07-25T18:04:02.980Z,2.42
2018-07-25T18:06:32.386Z,3.10
2018-07-25T18:09:01.783Z,4.28
2018-07-25T18:11:31.109Z,1.82
2018-07-25T18:14:16.377Z,3.42
2018-07-25T18:16:46.267Z,3.72
2018-07-25T18:19:17.979Z,2.98
2018-07-25T18:21:54.498Z,4.15
2018-07-25T18:24:29.669Z,3.22
2018-07-25T18:27:02.568Z,3.70
2018-07-25T18:29:32.126Z,2.50
2018-07-25T18:32:01.803Z,3.45
2018-07-25T18:34:32.056Z,3.12
2018-07-25T18:37:02.699Z,4.65
2018-07-25T18:39:32.040Z,2.80
2018-07-25T18:42:02.890Z,3.47
2018-07-25T18:44:36.088Z,7.28
2018-07-25T18:47:11.594Z,4.58
2018-07-25T18:49:41.801Z,7.78
2018-07-25T18:52:11.215Z,3.75
2018-07-25T18:54:40.662Z,5.20
2018-07-25T18:57:10.052Z,6.65
2018-07-25T18:59:42.135Z,5.83
2018-07-25T19:02:13.992Z,3.27
2018-07-25T19:04:47.108Z,4.85
2018-07-25T19:07:19.878Z,3.10
2018-07-25T19:09:53.182Z,4.33
2018-07-25T19:12:22.619Z,4.28
2018-07-25T19:14:57.703Z,3.55
2018-07-25T19:17:27.381Z,3.00
2018-07-25T19:19:57.041Z,4.58
2018-07-25T19:22:26.468Z,4.47
2018-07-25T19:24:56.031Z,2.80
2018-07-25T19:27:25.431Z,5.65
2018-07-25T19:29:54.941Z,2.50
2018-07-25T19:32:24.399Z,3.65
2018-07-25T19:34:53.910Z,3.95
2018-07-25T19:37:23.176Z,2.15
2018-07-25T19:39:52.636Z,2.75
2018-07-25T19:42:22.099Z,3.65
2018-07-25T19:44:51.374Z,2.33
2018-07-25T19:47:20.731Z,2.45
2018-07-25T19:49:49.984Z,2.37
2018-07-25T19:52:19.373Z,3.10
2018-07-25T19:54:48.679Z,3.83
2018-07-25T19:57:18.314Z,2.67
2018-07-25T19:59:48.794Z,2.40
2018-07-25T20:02:18.302Z,2.72
2018-07-25T20:04:47.884Z,2.95
2018-07-25T20:07:17.234Z,4.22
2018-07-25T20:09:46.553Z,4.42
2018-07-25T20:12:16.134Z,4.33
2018-07-25T20:14:50.693Z,4.62
2018-07-25T20:17:20.064Z,4.87
2018-07-25T20:19:49.613Z,3.37
2018-07-25T20:22:18.987Z,4.20
2018-07-25T20:24:49.388Z,2.25
2018-07-25T20:27:18.957Z,4.00
2018-07-25T20:29:48.534Z,3.45
2018-07-25T20:32:17.898Z,2.15
2018-07-25T20:34:47.247Z,4.42
2018-07-25T20:37:16.605Z,2.98
2018-07-25T20:39:45.993Z,3.17
2018-07-25T20:42:15.909Z,2.75
2018-07-25T20:44:45.254Z,3.42
2018-07-25T20:47:14.658Z,4.37
2018-07-25T20:49:44.023Z,2.55
2018-07-25T20:52:13.429Z,3.65
2018-07-25T20:54:42.832Z,4.58
2018-07-25T20:57:12.138Z,2.30
2018-07-25T20:59:41.348Z,3.58
2018-07-25T21:02:10.799Z,2.92
2018-07-25T21:04:40.189Z,2.60
2018-07-25T21:07:09.386Z,2.98
2018-07-25T21:09:38.690Z,3.17
2018-07-25T21:12:08.112Z,5.15
2018-07-25T21:14:37.474Z,2.27
2018-07-25T21:17:06.790Z,3.95
2018-07-25T21:19:36.981Z,2.75
2018-07-25T21:22:06.274Z,2.42
2018-07-25T21:24:35.737Z,2.50
2018-07-25T21:27:05.126Z,2.67
2018-07-25T21:29:34.462Z,3.87
2018-07-25T21:32:03.896Z,3.85
2018-07-25T21:34:33.231Z,2.45
2018-07-25T21:37:03.104Z,1.70
2018-07-25T21:39:32.433Z,2.45
2018-07-25T21:42:01.779Z,3.15
2018-07-25T21:44:31.236Z,1.87
2018-07-25T21:47:00.606Z,2.10
2018-07-25T21:49:30.029Z,2.83
2018-07-25T21:51:59.354Z,2.47
2018-07-25T21:54:28.627Z,2.00
2018-07-25T21:56:58.234Z,2.42
2018-07-25T21:59:27.666Z,3.70
2018-07-25T22:01:57.147Z,1.72
2018-07-25T22:04:26.752Z,2.58
2018-07-25T22:06:56.514Z,2.60
2018-07-25T22:09:25.978Z,2.27
2018-07-25T22:11:55.307Z,3.30
2018-07-25T22:14:24.608Z,2.22
2018-07-25T22:16:53.899Z,2.35
2018-07-25T22:19:23.181Z,2.15
2018-07-25T22:21:52.525Z,2.05
2018-07-25T22:24:21.857Z,2.35
2018-07-25T22:26:51.253Z,2.40
2018-07-25T22:29:20.980Z,1.95
2018-07-25T22:31:50.246Z,2.42
2018-07-25T22:34:19.366Z,2.20
2018-07-25T22:36:48.922Z,1.92
2018-07-25T22:39:18.270Z,2.27
2018-07-25T22:41:47.882Z,2.60
2018-07-25T22:44:17.198Z,2.22
2018-07-25T22:46:46.463Z,1.98
2018-07-25T22:49:15.709Z,2.58
2018-07-25T22:51:44.979Z,2.15
2018-07-25T22:54:14.266Z,2.40
2018-07-25T22:56:43.601Z,3.95
2018-07-25T22:59:12.899Z,2.50
2018-07-25T23:01:42.241Z,2.35
2018-07-25T23:04:11.386Z,3.00
2018-07-25T23:06:40.738Z,4.03
2018-07-25T23:09:11.230Z,2.10
2018-07-25T23:11:40.729Z,2.37
2018-07-25T23:14:10.246Z,2.58
2018-07-25T23:16:39.550Z,2.45
2018-07-25T23:19:09.000Z,3.20
2018-07-25T23:21:38.221Z,2.40
2018-07-25T23:24:07.487Z,3.70
2018-07-25T23:26:36.847Z,2.17
2018-07-25T23:29:06.213Z,4.90
2018-07-25T23:31:35.607Z,2.30
2018-07-25T23:34:04.925Z,2.90
2018-07-25T23:36:34.330Z,2.98
2018-07-25T23:39:04.175Z,2.30
2018-07-25T23:41:33.620Z,2.40
2018-07-25T23:44:02.925Z,2.37
2018-07-25T23:46:32.130Z,4.58
2018-07-25T23:49:01.478Z,3.67
2018-07-25T23:51:30.756Z,2.30
2018-07-25T23:54:00.145Z,2.75
2018-07-25T23:56:29.477Z,5.45
2018-07-25T23:58:58.902Z,5.17
